sensor_id;sensor_type;location;lat;lon;timestamp;pressure;altitude;pressure_sealevel;temperature;humidity
21980;BME280;11154;48.558;9.234;2024-02-14T00:01:42;97962.00;;;10.57;61.60
21980;BME280;11154;48.558;9.234;2024-02-14T00:03:43;97974.63;;;10.55;61.24
21980;BME280;11154;48.558;9.234;2024-02-14T00:05:45;97970.31;;;10.54;62.09
21980;BME280;11154;48.558;9.234;2024-02-14T00:07:47;97974.91;;;10.52;61.89
21980;BME280;11154;48.558;9.234;2024-02-14T00:09:48;97974.91;;;10.52;62.03
21980;BME280;11154;48.558;9.234;2024-02-14T00:11:52;97978.88;;;10.48;61.43
21980;BME280;11154;48.558;9.234;2024-02-14T00:13:53;97984.19;;;10.48;62.20
21980;BME280;11154;48.558;9.234;2024-02-14T00:15:56;97978.19;;;10.46;61.92
21980;BME280;11154;48.558;9.234;2024-02-14T00:17:58;97979.47;;;10.42;62.21
21980;BME280;11154;48.558;9.234;2024-02-14T00:20:01;97980.47;;;10.41;62.76
21980;BME280;11154;48.558;9.234;2024-02-14T00:22:03;97981.72;;;10.37;62.25
21980;BME280;11154;48.558;9.234;2024-02-14T00:24:06;97987.88;;;10.37;62.99
21980;BME280;11154;48.558;9.234;2024-02-14T00:26:08;97986.22;;;10.36;63.12
21980;BME280;11154;48.558;9.234;2024-02-14T00:28:11;97981.59;;;10.38;62.90
21980;BME280;11154;48.558;9.234;2024-02-14T00:30:13;97979.75;;;10.39;62.79
21980;BME280;11154;48.558;9.234;2024-02-14T00:32:15;97978.63;;;10.41;63.19
21980;BME280;11154;48.558;9.234;2024-02-14T00:34:16;97975.81;;;10.43;62.56
21980;BME280;11154;48.558;9.234;2024-02-14T00:36:18;97975.53;;;10.46;63.21
21980;BME280;11154;48.558;9.234;2024-02-14T00:38:20;97973.41;;;10.49;63.38
21980;BME280;11154;48.558;9.234;2024-02-14T00:40:20;97971.56;;;10.50;63.07
21980;BME280;11154;48.558;9.234;2024-02-14T00:42:22;97974.09;;;10.51;62.24
21980;BME280;11154;48.558;9.234;2024-02-14T00:44:25;97976.59;;;10.53;62.80
21980;BME280;11154;48.558;9.234;2024-02-14T00:46:27;97974.75;;;10.53;62.36
21980;BME280;11154;48.558;9.234;2024-02-14T00:48:29;97970.97;;;10.56;61.99
21980;BME280;11154;48.558;9.234;2024-02-14T00:50:30;97978.94;;;10.56;62.93
21980;BME280;11154;48.558;9.234;2024-02-14T00:52:33;97981.59;;;10.56;62.10
21980;BME280;11154;48.558;9.234;2024-02-14T00:54:35;97979.63;;;10.58;62.39
21980;BME280;11154;48.558;9.234;2024-02-14T00:56:37;97983.38;;;10.65;61.91
21980;BME280;11154;48.558;9.234;2024-02-14T00:58:38;97985.75;;;10.68;62.24
21980;BME280;11154;48.558;9.234;2024-02-14T01:00:41;97982.06;;;10.69;61.76
21980;BME280;11154;48.558;9.234;2024-02-14T01:02:42;97982.75;;;10.71;62.14
21980;BME280;11154;48.558;9.234;2024-02-14T01:04:44;97987.94;;;10.72;61.52
21980;BME280;11154;48.558;9.234;2024-02-14T01:06:45;97991.28;;;10.74;62.12
21980;BME280;11154;48.558;9.234;2024-02-14T01:08:48;97991.00;;;10.77;61.56
21980;BME280;11154;48.558;9.234;2024-02-14T01:10:49;97978.34;;;10.79;60.86
21980;BME280;11154;48.558;9.234;2024-02-14T01:12:52;97989.53;;;10.82;61.38
21980;BME280;11154;48.558;9.234;2024-02-14T01:14:53;97984.22;;;10.82;61.54
21980;BME280;11154;48.558;9.234;2024-02-14T01:16:56;97990.22;;;10.84;61.58
21980;BME280;11154;48.558;9.234;2024-02-14T01:18:58;97989.53;;;10.82;61.67
21980;BME280;11154;48.558;9.234;2024-02-14T01:20:59;97987.03;;;10.81;62.03
21980;BME280;11154;48.558;9.234;2024-02-14T01:23:01;97991.38;;;10.82;62.99
21980;BME280;11154;48.558;9.234;2024-02-14T01:25:03;97986.22;;;10.80;62.17
21980;BME280;11154;48.558;9.234;2024-02-14T01:27:05;97980.72;;;10.82;62.95
21980;BME280;11154;48.558;9.234;2024-02-14T01:29:08;97983.53;;;10.80;63.09
21980;BME280;11154;48.558;9.234;2024-02-14T01:31:10;97982.53;;;10.81;63.67
21980;BME280;11154;48.558;9.234;2024-02-14T01:33:14;97983.69;;;10.79;64.70
21980;BME280;11154;48.558;9.234;2024-02-14T01:35:16;97986.78;;;10.75;63.15
21980;BME280;11154;48.558;9.234;2024-02-14T01:37:19;97987.00;;;10.64;63.53
21980;BME280;11154;48.558;9.234;2024-02-14T01:39:22;97988.06;;;10.53;63.28
21980;BME280;11154;48.558;9.234;2024-02-14T01:41:23;97978.72;;;10.49;62.99
21980;BME280;11154;48.558;9.234;2024-02-14T01:43:25;97981.66;;;10.46;63.13
21980;BME280;11154;48.558;9.234;2024-02-14T01:45:26;97977.03;;;10.48;65.24
21980;BME280;11154;48.558;9.234;2024-02-14T01:47:28;97975.91;;;10.51;64.39
21980;BME280;11154;48.558;9.234;2024-02-14T01:49:31;97978.66;;;10.59;65.04
21980;BME280;11154;48.558;9.234;2024-02-14T01:51:33;97970.91;;;10.65;67.85
21980;BME280;11154;48.558;9.234;2024-02-14T01:53:37;97968.78;;;10.69;67.54
21980;BME280;11154;48.558;9.234;2024-02-14T01:55:39;97967.94;;;10.68;67.17
21980;BME280;11154;48.558;9.234;2024-02-14T01:57:42;97964.47;;;10.68;67.07
21980;BME280;11154;48.558;9.234;2024-02-14T01:59:43;97962.78;;;10.67;66.68
21980;BME280;11154;48.558;9.234;2024-02-14T02:01:45;97929.69;;;8.52;77.33
21980;BME280;11154;48.558;9.234;2024-02-14T02:03:47;97941.56;;;7.60;85.09
21980;BME280;11154;48.558;9.234;2024-02-14T02:05:51;97937.31;;;7.18;89.26
21980;BME280;11154;48.558;9.234;2024-02-14T02:07:54;97946.84;;;6.89;92.38
21980;BME280;11154;48.558;9.234;2024-02-14T02:09:55;97959.09;;;6.70;94.69
21980;BME280;11154;48.558;9.234;2024-02-14T02:11:57;97954.69;;;6.59;94.67
21980;BME280;11154;48.558;9.234;2024-02-14T02:14:00;97950.03;;;6.52;95.60
21980;BME280;11154;48.558;9.234;2024-02-14T02:16:04;97944.06;;;6.50;94.97
21980;BME280;11154;48.558;9.234;2024-02-14T02:18:06;97953.94;;;6.37;94.10
21980;BME280;11154;48.558;9.234;2024-02-14T02:20:09;97949.16;;;6.31;95.73
21980;BME280;11154;48.558;9.234;2024-02-14T02:22:11;97939.56;;;6.30;95.93
21980;BME280;11154;48.558;9.234;2024-02-14T02:24:14;97943.97;;;6.30;96.00
21980;BME280;11154;48.558;9.234;2024-02-14T02:26:16;97939.06;;;6.36;98.15
21980;BME280;11154;48.558;9.234;2024-02-14T02:28:17;97936.03;;;6.41;98.16
21980;BME280;11154;48.558;9.234;2024-02-14T02:30:19;97931.09;;;6.47;99.26
21980;BME280;11154;48.558;9.234;2024-02-14T02:32:20;97938.63;;;6.51;98.95
21980;BME280;11154;48.558;9.234;2024-02-14T02:34:22;97936.91;;;6.61;98.80
21980;BME280;11154;48.558;9.234;2024-02-14T02:36:24;97934.16;;;6.63;97.95
21980;BME280;11154;48.558;9.234;2024-02-14T02:38:25;97927.50;;;6.68;98.08
21980;BME280;11154;48.558;9.234;2024-02-14T02:40:28;97923.53;;;6.74;98.95
21980;BME280;11154;48.558;9.234;2024-02-14T02:42:31;97926.03;;;6.75;97.58
21980;BME280;11154;48.558;9.234;2024-02-14T02:44:32;97926.47;;;6.80;97.88
21980;BME280;11154;48.558;9.234;2024-02-14T02:46:33;97920.22;;;6.81;97.28
21980;BME280;11154;48.558;9.234;2024-02-14T02:48:36;97914.84;;;6.83;98.17
21980;BME280;11154;48.558;9.234;2024-02-14T02:50:38;97912.06;;;6.84;98.35
21980;BME280;11154;48.558;9.234;2024-02-14T02:52:39;97912.88;;;6.85;97.74
21980;BME280;11154;48.558;9.234;2024-02-14T02:54:42;97909.94;;;6.78;97.68
21980;BME280;11154;48.558;9.234;2024-02-14T02:56:45;97909.53;;;6.83;98.81
21980;BME280;11154;48.558;9.234;2024-02-14T02:58:47;97907.53;;;6.75;98.76
21980;BME280;11154;48.558;9.234;2024-02-14T03:00:48;97915.59;;;6.74;98.96
21980;BME280;11154;48.558;9.234;2024-02-14T03:02:50;97911.13;;;6.74;99.43
21980;BME280;11154;48.558;9.234;2024-02-14T03:04:52;97902.00;;;6.78;99.76
21980;BME280;11154;48.558;9.234;2024-02-14T03:06:54;97894.66;;;6.82;99.20
21980;BME280;11154;48.558;9.234;2024-02-14T03:08:55;97886.00;;;6.80;98.85
21980;BME280;11154;48.558;9.234;2024-02-14T03:10:57;97891.75;;;6.85;99.27
21980;BME280;11154;48.558;9.234;2024-02-14T03:13:01;97898.13;;;6.82;99.46
21980;BME280;11154;48.558;9.234;2024-02-14T03:15:03;97880.06;;;6.87;100.00
21980;BME280;11154;48.558;9.234;2024-02-14T03:17:05;97868.66;;;6.87;100.00
21980;BME280;11154;48.558;9.234;2024-02-14T03:19:10;97866.84;;;6.87;100.00
21980;BME280;11154;48.558;9.234;2024-02-14T03:21:11;97873.63;;;6.80;100.00
21980;BME280;11154;48.558;9.234;2024-02-14T03:23:13;97888.59;;;6.70;100.00
21980;BME280;11154;48.558;9.234;2024-02-14T03:25:17;97882.41;;;6.60;100.00
21980;BME280;11154;48.558;9.234;2024-02-14T03:27:19;97867.09;;;6.54;100.00
21980;BME280;11154;48.558;9.234;2024-02-14T03:29:25;97868.41;;;6.49;100.00
21980;BME280;11154;48.558;9.234;2024-02-14T03:31:27;97875.38;;;6.50;100.00
21980;BME280;11154;48.558;9.234;2024-02-14T03:33:28;97866.22;;;6.54;100.00
21980;BME280;11154;48.558;9.234;2024-02-14T03:35:30;97881.94;;;6.55;100.00
21980;BME280;11154;48.558;9.234;2024-02-14T03:37:32;97897.34;;;6.50;100.00
21980;BME280;11154;48.558;9.234;2024-02-14T03:39:33;97912.22;;;6.51;100.00
21980;BME280;11154;48.558;9.234;2024-02-14T03:41:35;97912.66;;;6.56;100.00
21980;BME280;11154;48.558;9.234;2024-02-14T03:43:37;97911.25;;;6.52;100.00
21980;BME280;11154;48.558;9.234;2024-02-14T03:45:40;97930.72;;;6.51;100.00
21980;BME280;11154;48.558;9.234;2024-02-14T03:47:42;97938.19;;;6.46;100.00
21980;BME280;11154;48.558;9.234;2024-02-14T03:49:43;97935.91;;;6.42;100.00
21980;BME280;11154;48.558;9.234;2024-02-14T03:51:45;97932.56;;;6.40;100.00
21980;BME280;11154;48.558;9.234;2024-02-14T03:53:46;97926.19;;;6.43;100.00
21980;BME280;11154;48.558;9.234;2024-02-14T03:55:48;97935.69;;;6.45;100.00
21980;BME280;11154;48.558;9.234;2024-02-14T03:57:50;97933.03;;;6.45;100.00
21980;BME280;11154;48.558;9.234;2024-02-14T03:59:52;97930.47;;;6.54;100.00
21980;BME280;11154;48.558;9.234;2024-02-14T04:01:55;97965.28;;;7.71;100.00
21980;BME280;11154;48.558;9.234;2024-02-14T04:03:58;97975.41;;;8.25;97.34
21980;BME280;11154;48.558;9.234;2024-02-14T04:06:00;97961.50;;;8.61;93.64
21980;BME280;11154;48.558;9.234;2024-02-14T04:08:02;97966.78;;;8.99;89.79
21980;BME280;11154;48.558;9.234;2024-02-14T04:10:05;97974.56;;;9.29;86.95
21980;BME280;11154;48.558;9.234;2024-02-14T04:12:07;97972.00;;;9.55;84.29
21980;BME280;11154;48.558;9.234;2024-02-14T04:14:10;97969.97;;;9.76;82.24
21980;BME280;11154;48.558;9.234;2024-02-14T04:16:12;97963.47;;;9.98;80.65
21980;BME280;11154;48.558;9.234;2024-02-14T04:18:15;97956.38;;;10.15;78.66
21980;BME280;11154;48.558;9.234;2024-02-14T04:20:18;97965.22;;;10.33;77.70
21980;BME280;11154;48.558;9.234;2024-02-14T04:22:19;97951.44;;;10.47;76.83
21980;BME280;11154;48.558;9.234;2024-02-14T04:24:21;97953.03;;;10.58;76.46
21980;BME280;11154;48.558;9.234;2024-02-14T04:26:23;97948.63;;;10.66;76.00
21980;BME280;11154;48.558;9.234;2024-02-14T04:28:25;97965.50;;;10.75;75.01
21980;BME280;11154;48.558;9.234;2024-02-14T04:30:26;97967.59;;;10.80;74.23
21980;BME280;11154;48.558;9.234;2024-02-14T04:32:28;97957.84;;;10.89;73.83
21980;BME280;11154;48.558;9.234;2024-02-14T04:34:31;97962.69;;;10.93;73.73
21980;BME280;11154;48.558;9.234;2024-02-14T04:36:32;97965.88;;;10.97;72.74
21980;BME280;11154;48.558;9.234;2024-02-14T04:38:35;97953.59;;;10.96;72.25
21980;BME280;11154;48.558;9.234;2024-02-14T04:40:36;97948.81;;;10.99;71.61
21980;BME280;11154;48.558;9.234;2024-02-14T04:42:38;97942.00;;;11.05;72.19
21980;BME280;11154;48.558;9.234;2024-02-14T04:44:40;97945.53;;;11.05;71.40
21980;BME280;11154;48.558;9.234;2024-02-14T04:46:41;97953.88;;;11.10;71.52
21980;BME280;11154;48.558;9.234;2024-02-14T04:48:43;97968.84;;;11.11;71.21
21980;BME280;11154;48.558;9.234;2024-02-14T04:50:46;97962.16;;;11.07;70.04
21980;BME280;11154;48.558;9.234;2024-02-14T04:52:49;97970.31;;;11.06;69.90
21980;BME280;11154;48.558;9.234;2024-02-14T04:54:50;97975.09;;;11.02;70.19
21980;BME280;11154;48.558;9.234;2024-02-14T04:56:52;97966.41;;;11.00;71.09
21980;BME280;11154;48.558;9.234;2024-02-14T04:58:54;97974.03;;;10.95;70.62
21980;BME280;11154;48.558;9.234;2024-02-14T05:00:56;97976.59;;;10.87;70.33
21980;BME280;11154;48.558;9.234;2024-02-14T05:02:57;97985.34;;;10.80;70.75
21980;BME280;11154;48.558;9.234;2024-02-14T05:04:59;97997.03;;;10.70;69.66
21980;BME280;11154;48.558;9.234;2024-02-14T05:07:01;97996.38;;;10.68;70.36
21980;BME280;11154;48.558;9.234;2024-02-14T05:09:02;97995.00;;;10.64;70.83
21980;BME280;11154;48.558;9.234;2024-02-14T05:11:03;97988.16;;;10.61;71.30
21980;BME280;11154;48.558;9.234;2024-02-14T05:13:05;97990.97;;;10.60;71.89
21980;BME280;11154;48.558;9.234;2024-02-14T05:15:07;97981.16;;;10.60;72.61
21980;BME280;11154;48.558;9.234;2024-02-14T05:17:09;97992.09;;;10.75;76.45
21980;BME280;11154;48.558;9.234;2024-02-14T05:19:11;97989.31;;;10.76;75.37
21980;BME280;11154;48.558;9.234;2024-02-14T05:21:13;97985.13;;;10.74;74.62
21980;BME280;11154;48.558;9.234;2024-02-14T05:23:16;97989.06;;;10.70;74.04
21980;BME280;11154;48.558;9.234;2024-02-14T05:25:18;97996.22;;;10.69;73.51
21980;BME280;11154;48.558;9.234;2024-02-14T05:27:20;97996.88;;;10.71;73.27
21980;BME280;11154;48.558;9.234;2024-02-14T05:29:20;97988.19;;;10.78;72.18
21980;BME280;11154;48.558;9.234;2024-02-14T05:31:22;97990.50;;;10.81;71.81
21980;BME280;11154;48.558;9.234;2024-02-14T05:33:24;97985.06;;;10.83;71.42
21980;BME280;11154;48.558;9.234;2024-02-14T05:35:25;97977.28;;;10.89;72.33
21980;BME280;11154;48.558;9.234;2024-02-14T05:37:28;97977.53;;;10.96;72.26
21980;BME280;11154;48.558;9.234;2024-02-14T05:39:32;97979.88;;;10.99;71.74
21980;BME280;11154;48.558;9.234;2024-02-14T05:41:34;97985.72;;;11.02;71.78
21980;BME280;11154;48.558;9.234;2024-02-14T05:43:35;97992.13;;;11.09;72.07
21980;BME280;11154;48.558;9.234;2024-02-14T05:45:38;97986.78;;;11.09;70.47
21980;BME280;11154;48.558;9.234;2024-02-14T05:47:40;97984.34;;;11.16;71.12
21980;BME280;11154;48.558;9.234;2024-02-14T05:49:42;97985.72;;;11.20;71.21
21980;BME280;11154;48.558;9.234;2024-02-14T05:51:44;97976.28;;;11.25;71.27
21980;BME280;11154;48.558;9.234;2024-02-14T05:53:46;97975.97;;;11.28;70.20
21980;BME280;11154;48.558;9.234;2024-02-14T05:55:49;97973.16;;;11.30;70.06
21980;BME280;11154;48.558;9.234;2024-02-14T05:57:51;97974.66;;;11.32;69.61
21980;BME280;11154;48.558;9.234;2024-02-14T05:59:52;97980.69;;;11.34;70.00
21980;BME280;11154;48.558;9.234;2024-02-14T06:01:54;97976.34;;;11.33;68.12
21980;BME280;11154;48.558;9.234;2024-02-14T06:03:55;97967.38;;;11.34;68.04
21980;BME280;11154;48.558;9.234;2024-02-14T06:05:56;97959.84;;;11.30;68.49
21980;BME280;11154;48.558;9.234;2024-02-14T06:07:58;97965.16;;;11.30;69.33
21980;BME280;11154;48.558;9.234;2024-02-14T06:09:59;97958.03;;;11.30;75.58
21980;BME280;11154;48.558;9.234;2024-02-14T06:12:03;97956.28;;;11.21;72.80
21980;BME280;11154;48.558;9.234;2024-02-14T06:14:03;97965.88;;;11.14;72.07
21980;BME280;11154;48.558;9.234;2024-02-14T06:16:05;97966.94;;;11.04;71.11
21980;BME280;11154;48.558;9.234;2024-02-14T06:18:08;97966.03;;;10.95;71.20
21980;BME280;11154;48.558;9.234;2024-02-14T06:20:11;97964.16;;;10.88;70.63
21980;BME280;11154;48.558;9.234;2024-02-14T06:22:13;97960.09;;;10.84;69.76
21980;BME280;11154;48.558;9.234;2024-02-14T06:24:14;97966.56;;;10.81;70.85
21980;BME280;11154;48.558;9.234;2024-02-14T06:26:16;97962.94;;;10.82;71.02
21980;BME280;11154;48.558;9.234;2024-02-14T06:28:19;97957.59;;;10.82;70.49
21980;BME280;11154;48.558;9.234;2024-02-14T06:30:21;97954.94;;;10.82;70.48
21980;BME280;11154;48.558;9.234;2024-02-14T06:32:22;97958.47;;;10.83;70.05
21980;BME280;11154;48.558;9.234;2024-02-14T06:34:24;97952.81;;;10.86;70.06
21980;BME280;11154;48.558;9.234;2024-02-14T06:36:26;97974.63;;;10.89;70.66
21980;BME280;11154;48.558;9.234;2024-02-14T06:38:27;97984.28;;;10.90;71.17
21980;BME280;11154;48.558;9.234;2024-02-14T06:40:29;97975.69;;;10.96;71.56
21980;BME280;11154;48.558;9.234;2024-02-14T06:42:31;97986.06;;;10.99;71.14
21980;BME280;11154;48.558;9.234;2024-02-14T06:44:34;97978.06;;;10.99;70.71
21980;BME280;11154;48.558;9.234;2024-02-14T06:46:35;97983.69;;;10.96;70.69
21980;BME280;11154;48.558;9.234;2024-02-14T06:48:38;97998.34;;;11.00;71.22
21980;BME280;11154;48.558;9.234;2024-02-14T06:50:41;97992.72;;;11.03;71.19
21980;BME280;11154;48.558;9.234;2024-02-14T06:52:42;97997.72;;;11.06;71.03
21980;BME280;11154;48.558;9.234;2024-02-14T06:54:43;97993.78;;;11.10;71.43
21980;BME280;11154;48.558;9.234;2024-02-14T06:56:45;97999.66;;;11.14;71.64
21980;BME280;11154;48.558;9.234;2024-02-14T06:58:47;97991.06;;;11.20;72.32
21980;BME280;11154;48.558;9.234;2024-02-14T07:00:54;98001.09;;;11.26;71.92
21980;BME280;11154;48.558;9.234;2024-02-14T07:02:55;98007.09;;;11.28;71.46
21980;BME280;11154;48.558;9.234;2024-02-14T07:04:57;97998.63;;;11.32;70.56
21980;BME280;11154;48.558;9.234;2024-02-14T07:06:58;97995.84;;;11.34;70.19
21980;BME280;11154;48.558;9.234;2024-02-14T07:09:00;97998.50;;;11.34;69.86
21980;BME280;11154;48.558;9.234;2024-02-14T07:11:02;97998.34;;;11.35;69.32
21980;BME280;11154;48.558;9.234;2024-02-14T07:13:04;98002.66;;;11.36;69.32
21980;BME280;11154;48.558;9.234;2024-02-14T07:15:06;98015.66;;;11.39;69.00
21980;BME280;11154;48.558;9.234;2024-02-14T07:17:09;98009.06;;;11.43;68.80
21980;BME280;11154;48.558;9.234;2024-02-14T07:19:11;98008.06;;;11.44;68.79
21980;BME280;11154;48.558;9.234;2024-02-14T07:21:13;98005.41;;;11.44;68.98
21980;BME280;11154;48.558;9.234;2024-02-14T07:23:15;97998.25;;;11.45;69.69
21980;BME280;11154;48.558;9.234;2024-02-14T07:25:16;97999.06;;;11.45;69.59
21980;BME280;11154;48.558;9.234;2024-02-14T07:27:18;98005.00;;;11.56;69.88
21980;BME280;11154;48.558;9.234;2024-02-14T07:29:20;97992.63;;;11.73;69.31
21980;BME280;11154;48.558;9.234;2024-02-14T07:31:22;97989.75;;;11.66;69.22
21980;BME280;11154;48.558;9.234;2024-02-14T07:33:26;98003.69;;;11.60;70.27
21980;BME280;11154;48.558;9.234;2024-02-14T07:35:28;98008.81;;;11.54;70.38
21980;BME280;11154;48.558;9.234;2024-02-14T07:37:30;98014.75;;;11.48;71.00
21980;BME280;11154;48.558;9.234;2024-02-14T07:39:32;98014.75;;;11.48;71.45
21980;BME280;11154;48.558;9.234;2024-02-14T07:41:35;98014.91;;;11.47;72.48
21980;BME280;11154;48.558;9.234;2024-02-14T07:43:36;98022.72;;;11.48;72.60
21980;BME280;11154;48.558;9.234;2024-02-14T07:45:38;98021.97;;;11.55;72.92
21980;BME280;11154;48.558;9.234;2024-02-14T07:47:39;98017.88;;;11.61;72.95
21980;BME280;11154;48.558;9.234;2024-02-14T07:49:42;98018.94;;;11.68;72.86
21980;BME280;11154;48.558;9.234;2024-02-14T07:51:44;98013.94;;;11.73;72.52
21980;BME280;11154;48.558;9.234;2024-02-14T07:53:45;98019.81;;;11.76;72.20
21980;BME280;11154;48.558;9.234;2024-02-14T07:55:46;98019.34;;;11.81;72.49
21980;BME280;11154;48.558;9.234;2024-02-14T07:57:49;98020.69;;;11.85;72.07
21980;BME280;11154;48.558;9.234;2024-02-14T07:59:50;98018.03;;;11.85;71.98
21980;BME280;11154;48.558;9.234;2024-02-14T08:01:52;98033.03;;;11.86;72.40
21980;BME280;11154;48.558;9.234;2024-02-14T08:03:54;98028.91;;;11.91;72.28
21980;BME280;11154;48.558;9.234;2024-02-14T08:05:57;98030.09;;;11.97;72.02
21980;BME280;11154;48.558;9.234;2024-02-14T08:08:00;98039.13;;;12.04;72.97
21980;BME280;11154;48.558;9.234;2024-02-14T08:10:02;98037.84;;;12.08;74.45
21980;BME280;11154;48.558;9.234;2024-02-14T08:12:05;98038.50;;;12.10;75.60
21980;BME280;11154;48.558;9.234;2024-02-14T08:14:07;98033.53;;;12.15;76.46
21980;BME280;11154;48.558;9.234;2024-02-14T08:16:08;98033.53;;;12.15;76.78
21980;BME280;11154;48.558;9.234;2024-02-14T08:18:10;98030.56;;;12.18;77.05
21980;BME280;11154;48.558;9.234;2024-02-14T08:20:12;98027.72;;;12.19;76.90
21980;BME280;11154;48.558;9.234;2024-02-14T08:22:15;98036.91;;;12.24;76.62
21980;BME280;11154;48.558;9.234;2024-02-14T08:24:17;98038.25;;;12.28;76.20
21980;BME280;11154;48.558;9.234;2024-02-14T08:26:19;98037.97;;;12.31;75.68
21980;BME280;11154;48.558;9.234;2024-02-14T08:28:20;98032.63;;;12.31;75.62
21980;BME280;11154;48.558;9.234;2024-02-14T08:30:22;98037.97;;;12.31;75.48
21980;BME280;11154;48.558;9.234;2024-02-14T08:32:24;98042.59;;;12.29;75.09
21980;BME280;11154;48.558;9.234;2024-02-14T08:34:25;98038.25;;;12.28;74.85
21980;BME280;11154;48.558;9.234;2024-02-14T08:36:27;98062.09;;;12.30;74.80
21980;BME280;11154;48.558;9.234;2024-02-14T08:38:30;98055.13;;;12.29;74.84
21980;BME280;11154;48.558;9.234;2024-02-14T08:40:32;98050.59;;;12.29;74.96
21980;BME280;11154;48.558;9.234;2024-02-14T08:42:34;98058.59;;;12.29;74.51
21980;BME280;11154;48.558;9.234;2024-02-14T08:44:35;98052.28;;;12.30;74.43
21980;BME280;11154;48.558;9.234;2024-02-14T08:46:37;98041.28;;;12.33;73.97
21980;BME280;11154;48.558;9.234;2024-02-14T08:48:39;98055.00;;;12.38;74.09
21980;BME280;11154;48.558;9.234;2024-02-14T08:50:45;98059.00;;;12.42;74.82
21980;BME280;11154;48.558;9.234;2024-02-14T08:52:47;98060.22;;;12.48;73.90
21980;BME280;11154;48.558;9.234;2024-02-14T08:54:50;98060.56;;;12.53;73.61
21980;BME280;11154;48.558;9.234;2024-02-14T08:56:52;98052.22;;;12.56;73.33
21980;BME280;11154;48.558;9.234;2024-02-14T08:58:56;98051.09;;;12.58;73.06
21980;BME280;11154;48.558;9.234;2024-02-14T09:00:57;98048.91;;;12.62;73.34
21980;BME280;11154;48.558;9.234;2024-02-14T09:02:59;98053.75;;;12.66;73.07
21980;BME280;11154;48.558;9.234;2024-02-14T09:05:01;98057.59;;;12.64;72.96
21980;BME280;11154;48.558;9.234;2024-02-14T09:07:04;98053.44;;;12.69;73.21
21980;BME280;11154;48.558;9.234;2024-02-14T09:09:06;98052.13;;;12.73;73.05
21980;BME280;11154;48.558;9.234;2024-02-14T09:11:11;98056.16;;;12.77;72.64
21980;BME280;11154;48.558;9.234;2024-02-14T09:13:13;98055.00;;;12.80;73.25
21980;BME280;11154;48.558;9.234;2024-02-14T09:15:15;98053.84;;;12.82;73.24
21980;BME280;11154;48.558;9.234;2024-02-14T09:17:17;98071.19;;;12.86;73.27
21980;BME280;11154;48.558;9.234;2024-02-14T09:19:18;98057.69;;;12.88;73.61
21980;BME280;11154;48.558;9.234;2024-02-14T09:21:19;98062.56;;;12.92;73.64
21980;BME280;11154;48.558;9.234;2024-02-14T09:23:22;98055.91;;;12.96;74.04
21980;BME280;11154;48.558;9.234;2024-02-14T09:25:23;98059.91;;;13.00;74.30
21980;BME280;11154;48.558;9.234;2024-02-14T09:27:26;98060.59;;;13.02;74.32
21980;BME280;11154;48.558;9.234;2024-02-14T09:29:28;98059.44;;;13.04;74.93
21980;BME280;11154;48.558;9.234;2024-02-14T09:31:30;98058.78;;;13.10;75.10
21980;BME280;11154;48.558;9.234;2024-02-14T09:33:32;98063.63;;;13.15;75.62
21980;BME280;11154;48.558;9.234;2024-02-14T09:35:33;98064.78;;;13.20;75.57
21980;BME280;11154;48.558;9.234;2024-02-14T09:37:38;98061.47;;;13.26;75.69
21980;BME280;11154;48.558;9.234;2024-02-14T09:39:39;98058.31;;;13.31;75.15
21980;BME280;11154;48.558;9.234;2024-02-14T09:41:44;98059.31;;;13.38;75.12
21980;BME280;11154;48.558;9.234;2024-02-14T09:43:49;98060.16;;;13.46;75.57
21980;BME280;11154;48.558;9.234;2024-02-14T09:45:51;98062.16;;;13.52;75.51
21980;BME280;11154;48.558;9.234;2024-02-14T09:47:53;98072.03;;;13.60;76.15
21980;BME280;11154;48.558;9.234;2024-02-14T09:49:55;98074.34;;;13.63;74.41
21980;BME280;11154;48.558;9.234;2024-02-14T09:51:58;98066.66;;;13.68;74.26
21980;BME280;11154;48.558;9.234;2024-02-14T09:54:02;98071.34;;;13.73;74.30
21980;BME280;11154;48.558;9.234;2024-02-14T09:56:05;98063.31;;;13.81;74.74
21980;BME280;11154;48.558;9.234;2024-02-14T09:58:08;98068.66;;;13.89;75.35
21980;BME280;11154;48.558;9.234;2024-02-14T10:00:12;98059.66;;;13.90;73.80
21980;BME280;11154;48.558;9.234;2024-02-14T10:02:14;98059.97;;;13.95;73.76
21980;BME280;11154;48.558;9.234;2024-02-14T10:04:18;98063.31;;;13.97;69.88
21980;BME280;11154;48.558;9.234;2024-02-14T10:06:21;98054.63;;;14.03;71.36
21980;BME280;11154;48.558;9.234;2024-02-14T10:08:24;98065.81;;;14.07;71.73
21980;BME280;11154;48.558;9.234;2024-02-14T10:10:26;98047.63;;;14.10;70.98
21980;BME280;11154;48.558;9.234;2024-02-14T10:12:28;98049.25;;;14.19;73.20
21980;BME280;11154;48.558;9.234;2024-02-14T10:14:30;98052.25;;;14.24;71.07
21980;BME280;11154;48.558;9.234;2024-02-14T10:16:32;98044.88;;;14.34;74.31
21980;BME280;11154;48.558;9.234;2024-02-14T10:18:34;98053.53;;;14.44;76.51
21980;BME280;11154;48.558;9.234;2024-02-14T10:20:35;98049.66;;;14.46;73.12
21980;BME280;11154;48.558;9.234;2024-02-14T10:22:41;98044.16;;;14.48;70.48
21980;BME280;11154;48.558;9.234;2024-02-14T10:24:41;98045.16;;;14.47;68.70
21980;BME280;11154;48.558;9.234;2024-02-14T10:26:43;98035.78;;;14.51;70.28
21980;BME280;11154;48.558;9.234;2024-02-14T10:28:46;98041.31;;;14.49;69.36
21980;BME280;11154;48.558;9.234;2024-02-14T10:30:48;98034.28;;;14.48;68.89
21980;BME280;11154;48.558;9.234;2024-02-14T10:32:52;98043.47;;;14.54;69.16
21980;BME280;11154;48.558;9.234;2024-02-14T10:34:53;98030.72;;;14.56;68.99
21980;BME280;11154;48.558;9.234;2024-02-14T10:36:56;98036.75;;;14.58;69.69
21980;BME280;11154;48.558;9.234;2024-02-14T10:38:58;98023.88;;;14.61;69.91
21980;BME280;11154;48.558;9.234;2024-02-14T10:41:00;98020.19;;;14.62;68.75
21980;BME280;11154;48.558;9.234;2024-02-14T10:43:02;98022.34;;;14.67;70.00
21980;BME280;11154;48.558;9.234;2024-02-14T10:45:05;98017.97;;;14.74;70.36
21980;BME280;11154;48.558;9.234;2024-02-14T10:47:10;98027.59;;;14.83;70.58
21980;BME280;11154;48.558;9.234;2024-02-14T10:49:14;98023.22;;;14.90;70.37